Time;durP1;ratioP1;P1;durP2;ratioP2;P2;SDS_P1;SDS_P2;PMS_P1;PMS_P2;Temp;Humidity;BMP_temperature;BMP_pressure;BME280_temperature;BME280_humidity;BME280_pressure;Samples;Min_cycle;Max_cycle;Signal;HPM_P1;HPM_P2
2021/01/08 00:00:20;;;;;;;2.03;0.80;;;2.10;93.60;;;;;;6160173;23;20085;-77
2021/01/08 00:02:45;;;;;;;3.65;1.38;;;2.10;93.60;;;;;;6169468;23;20052;-77
2021/01/08 00:05:12;;;;;;;3.70;1.52;;;2.10;93.60;;;;;;6170949;23;20308;-77
2021/01/08 00:07:38;;;;;;;2.88;1.00;;;2.10;93.60;;;;;;6160655;23;20017;-76
2021/01/08 00:10:05;;;;;;;2.60;1.05;;;2.10;93.70;;;;;;6160655;23;20067;-77
2021/01/08 00:12:32;;;;;;;2.17;0.80;;;2.10;93.70;;;;;;6145558;23;20009;-77
2021/01/08 00:14:59;;;;;;;2.60;1.20;;;2.10;93.60;;;;;;6169571;23;20093;-76
2021/01/08 00:17:25;;;;;;;4.13;1.15;;;2.10;93.70;;;;;;6169560;23;20088;-77
2021/01/08 00:19:55;;;;;;;4.75;0.90;;;2.20;93.70;;;;;;6133227;23;20020;-77
2021/01/08 00:22:21;;;;;;;2.20;1.00;;;2.20;93.70;;;;;;6170408;23;20064;-77
2021/01/08 00:24:50;;;;;;;3.45;0.75;;;2.20;93.70;;;;;;6161825;23;20042;-77
2021/01/08 00:27:16;;;;;;;4.20;1.00;;;2.20;93.70;;;;;;6162484;23;20010;-77
2021/01/08 00:29:42;;;;;;;2.17;0.80;;;2.10;93.60;;;;;;6161655;23;20013;-77
2021/01/08 00:32:12;;;;;;;1.48;0.57;;;2.10;93.70;;;;;;6161482;23;20324;-76
2021/01/08 00:34:38;;;;;;;4.32;0.80;;;2.20;93.80;;;;;;6161427;23;20096;-76
2021/01/08 00:37:04;;;;;;;2.63;0.80;;;2.10;93.60;;;;;;6161411;23;20411;-78
2021/01/08 00:39:30;;;;;;;1.73;0.70;;;2.20;93.60;;;;;;6161952;23;20029;-77
2021/01/08 00:41:56;;;;;;;2.70;0.98;;;2.20;93.80;;;;;;6162000;23;20315;-77
2021/01/08 00:44:22;;;;;;;2.95;0.80;;;2.20;93.80;;;;;;6171368;23;20009;-77
2021/01/08 00:46:50;;;;;;;3.17;0.60;;;2.20;93.70;;;;;;6161490;23;20032;-77
2021/01/08 00:49:16;;;;;;;1.70;0.57;;;2.20;93.70;;;;;;6162492;23;20092;-78
2021/01/08 00:51:42;;;;;;;1.38;0.50;;;2.10;93.60;;;;;;6162452;23;20014;-76
2021/01/08 00:54:09;;;;;;;1.35;0.55;;;2.10;93.60;;;;;;6162260;23;20092;-76
2021/01/08 00:56:35;;;;;;;2.25;0.77;;;2.10;93.70;;;;;;6163053;23;20018;-77
2021/01/08 00:59:01;;;;;;;2.15;0.70;;;2.10;93.60;;;;;;6162023;23;20033;-77
2021/01/08 01:01:27;;;;;;;3.20;0.80;;;2.00;93.60;;;;;;6136095;23;20316;-77
2021/01/08 01:03:53;;;;;;;3.08;0.75;;;2.00;93.70;;;;;;6162009;23;20009;-76
2021/01/08 01:06:26;;;;;;;2.63;0.50;;;2.00;93.70;;;;;;6171060;23;20041;-77
2021/01/08 01:08:53;;;;;;;5.00;1.00;;;2.00;93.70;;;;;;6171585;23;20013;-76
2021/01/08 01:11:20;;;;;;;2.38;0.77;;;2.10;93.80;;;;;;6162223;23;20014;-76
2021/01/08 01:13:49;;;;;;;3.63;0.90;;;1.90;93.80;;;;;;6161745;23;20084;-77
2021/01/08 01:16:16;;;;;;;2.28;0.60;;;1.90;93.80;;;;;;6161943;23;20018;-76
2021/01/08 01:18:43;;;;;;;3.72;1.20;;;1.90;93.90;;;;;;6135520;23;20272;-76
2021/01/08 01:21:09;;;;;;;2.50;0.90;;;1.90;93.90;;;;;;6161456;23;20088;-77
2021/01/08 01:23:35;;;;;;;2.53;0.80;;;1.90;93.90;;;;;;6171300;23;20275;-76
2021/01/08 01:26:02;;;;;;;2.50;0.60;;;1.90;93.90;;;;;;6161324;23;20013;-75
2021/01/08 01:28:28;;;;;;;1.10;0.63;;;1.90;93.90;;;;;;6160784;23;20041;-75
2021/01/08 01:30:54;;;;;;;2.75;0.57;;;1.80;94.00;;;;;;6160836;23;20017;-75
2021/01/08 01:33:20;;;;;;;2.72;0.95;;;1.80;94.00;;;;;;6161605;23;20018;-78
2021/01/08 01:35:45;;;;;;;2.35;0.70;;;1.80;94.00;;;;;;6171352;23;20013;-75
2021/01/08 01:38:11;;;;;;;4.10;0.70;;;1.80;93.90;;;;;;6171569;23;20021;-75
2021/01/08 01:40:37;;;;;;;2.38;0.50;;;1.80;93.90;;;;;;6167616;23;20013;-75
2021/01/08 01:43:03;;;;;;;1.00;0.55;;;1.80;93.90;;;;;;6161084;23;20017;-76
2021/01/08 01:45:29;;;;;;;2.03;0.90;;;1.70;93.90;;;;;;6160865;23;20017;-76
2021/01/08 01:47:55;;;;;;;2.35;0.80;;;1.70;93.90;;;;;;6160646;23;20072;-75
2021/01/08 01:50:22;;;;;;;3.60;0.82;;;1.70;93.90;;;;;;6170712;23;20009;-76
2021/01/08 01:52:48;;;;;;;1.45;0.80;;;1.70;93.90;;;;;;6170702;23;20010;-76
2021/01/08 01:55:14;;;;;;;2.25;0.82;;;1.70;94.00;;;;;;6168444;23;20311;-76
2021/01/08 01:57:41;;;;;;;3.08;0.82;;;1.80;94.00;;;;;;6171062;23;20017;-78
2021/01/08 02:00:08;;;;;;;4.00;0.80;;;1.80;94.00;;;;;;6161202;23;20020;-76
2021/01/08 02:02:40;;;;;;;1.55;0.80;;;1.80;94.00;;;;;;6170457;23;20372;-75
2021/01/08 02:05:07;;;;;;;2.05;0.60;;;1.80;93.90;;;;;;6160575;23;20396;-76
2021/01/08 02:07:47;;;;;;;1.55;0.80;;;1.80;93.90;;;;;;6170486;23;20009;-75
2021/01/08 02:10:14;;;;;;;2.00;0.52;;;1.80;94.00;;;;;;6168855;23;20009;-77
2021/01/08 02:12:43;;;;;;;1.48;0.70;;;1.90;94.00;;;;;;6161050;23;20048;-76
2021/01/08 02:15:10;;;;;;;2.80;0.90;;;1.80;93.90;;;;;;6160648;23;20022;-76
2021/01/08 02:17:36;;;;;;;1.50;0.75;;;1.90;93.90;;;;;;6161164;23;20024;-76
2021/01/08 02:20:07;;;;;;;1.73;0.70;;;1.90;94.00;;;;;;6161548;23;20037;-75
2021/01/08 02:22:43;;;;;;;1.92;0.50;;;1.90;93.90;;;;;;6160723;23;20014;-76
2021/01/08 02:25:17;;;;;;;2.58;0.80;;;1.90;93.90;;;;;;6169559;23;20021;-76
2021/01/08 02:28:07;;;;;;;2.65;0.85;;;2.00;93.90;;;;;;6160097;23;20017;-76
2021/01/08 02:30:37;;;;;;;0.90;0.50;;;2.00;93.90;;;;;;6160863;23;20025;-76
2021/01/08 02:33:04;;;;;;;2.33;0.90;;;2.00;93.80;;;;;;6160025;23;20014;-76
2021/01/08 02:35:33;;;;;;;2.33;0.60;;;2.00;93.80;;;;;;6160552;23;20450;-76
2021/01/08 02:38:00;;;;;;;2.20;0.70;;;1.90;93.90;;;;;;6134349;23;20021;-77
2021/01/08 02:40:27;;;;;;;1.52;0.90;;;2.00;93.80;;;;;;6161275;23;20447;-77
2021/01/08 02:43:12;;;;;;;3.05;0.80;;;2.00;93.80;;;;;;6170302;23;20273;-77
2021/01/08 02:45:38;;;;;;;1.17;0.77;;;2.00;93.80;;;;;;6110417;23;20068;-76
2021/01/08 02:48:04;;;;;;;1.20;0.50;;;2.00;93.80;;;;;;6134578;23;20021;-76
2021/01/08 02:50:31;;;;;;;1.85;0.70;;;2.00;93.70;;;;;;6170517;23;20013;-75
2021/01/08 02:52:59;;;;;;;0.43;0.40;;;2.00;93.70;;;;;;6159929;23;20013;-77
2021/01/08 02:55:30;;;;;;;0.90;0.50;;;2.00;93.70;;;;;;6160307;23;20013;-75
2021/01/08 02:57:59;;;;;;;2.55;0.77;;;1.90;93.80;;;;;;6160705;23;20021;-75
2021/01/08 03:00:26;;;;;;;1.73;0.52;;;1.90;93.80;;;;;;6160616;23;20014;-75
2021/01/08 03:02:52;;;;;;;1.17;0.50;;;1.90;93.80;;;;;;6161597;23;20092;-76
2021/01/08 03:05:19;;;;;;;1.73;0.70;;;1.90;93.80;;;;;;6160344;23;20017;-76
2021/01/08 03:07:45;;;;;;;1.60;0.70;;;1.90;93.80;;;;;;6134513;23;20018;-77
2021/01/08 03:10:12;;;;;;;1.95;0.70;;;1.90;93.80;;;;;;6169941;23;20032;-76
2021/01/08 03:12:38;;;;;;;1.25;0.60;;;1.90;93.80;;;;;;6160709;23;20033;-75
2021/01/08 03:15:08;;;;;;;1.70;0.70;;;1.90;93.80;;;;;;6170028;23;20388;-75
2021/01/08 03:17:34;;;;;;;3.28;0.90;;;1.90;93.70;;;;;;6160436;23;20009;-76
2021/01/08 03:20:00;;;;;;;1.90;0.90;;;1.90;93.80;;;;;;6170086;23;20072;-76
2021/01/08 03:22:25;;;;;;;1.77;0.75;;;2.10;93.80;;;;;;6134900;23;20013;-77
2021/01/08 03:24:51;;;;;;;2.05;0.70;;;1.90;93.80;;;;;;6160445;23;20021;-76
2021/01/08 03:27:17;;;;;;;1.85;0.70;;;1.90;93.70;;;;;;6160141;23;20021;-77
2021/01/08 03:29:42;;;;;;;4.60;1.10;;;2.00;93.80;;;;;;6159867;23;20097;-75
2021/01/08 03:32:08;;;;;;;1.60;0.90;;;2.00;93.70;;;;;;6160378;23;20273;-74
2021/01/08 03:34:34;;;;;;;1.73;0.90;;;2.00;93.70;;;;;;6159875;23;20305;-75
2021/01/08 03:36:59;;;;;;;3.22;0.93;;;2.00;93.80;;;;;;6160456;23;20049;-76
2021/01/08 03:39:25;;;;;;;3.35;0.75;;;2.00;93.80;;;;;;6133817;23;20249;-76
2021/01/08 03:41:51;;;;;;;2.25;0.90;;;2.00;93.80;;;;;;6164482;23;20041;-76
2021/01/08 03:44:17;;;;;;;2.35;0.93;;;2.40;93.90;;;;;;6160204;23;20242;-75
2021/01/08 03:46:42;;;;;;;1.92;0.80;;;2.00;93.80;;;;;;6169152;23;20281;-76
2021/01/08 03:49:09;;;;;;;3.45;0.90;;;2.00;93.80;;;;;;6160575;23;20017;-76
2021/01/08 03:51:34;;;;;;;1.98;0.90;;;2.00;93.80;;;;;;6170189;23;20041;-75
2021/01/08 03:54:00;;;;;;;3.08;1.00;;;2.00;93.90;;;;;;6159519;23;20017;-75
2021/01/08 03:56:26;;;;;;;3.13;1.02;;;2.10;93.90;;;;;;6166000;23;20202;-76
2021/01/08 03:58:52;;;;;;;2.45;0.70;;;2.00;93.80;;;;;;6161061;23;20392;-76
2021/01/08 04:01:17;;;;;;;1.48;0.90;;;2.00;93.80;;;;;;6171747;23;20017;-76
2021/01/08 04:03:43;;;;;;;2.58;1.05;;;2.00;93.80;;;;;;6171663;23;20037;-76
2021/01/08 04:06:09;;;;;;;3.67;1.08;;;2.10;93.80;;;;;;6162108;23;20084;-76
2021/01/08 04:08:35;;;;;;;2.50;1.08;;;2.10;93.90;;;;;;6162167;23;20025;-76
2021/01/08 04:11:01;;;;;;;4.45;1.40;;;2.10;93.90;;;;;;6161985;23;20021;-77
2021/01/08 04:13:27;;;;;;;2.75;1.08;;;2.10;93.90;;;;;;6136092;23;20037;-76
2021/01/08 04:15:53;;;;;;;2.83;1.20;;;2.10;93.90;;;;;;6161827;23;20009;-75
2021/01/08 04:18:19;;;;;;;3.67;1.45;;;2.10;93.90;;;;;;6161878;23;20328;-75
2021/01/08 04:20:45;;;;;;;1.92;1.00;;;2.10;93.90;;;;;;6136309;23;20022;-75
2021/01/08 04:23:10;;;;;;;4.07;1.00;;;2.20;93.90;;;;;;6161688;23;20012;-76
2021/01/08 04:25:36;;;;;;;2.88;1.30;;;2.20;93.90;;;;;;6161080;23;20022;-76
2021/01/08 04:28:02;;;;;;;2.72;1.13;;;2.20;93.90;;;;;;6136565;23;20017;-76
2021/01/08 04:30:28;;;;;;;3.50;1.60;;;2.20;93.90;;;;;;6141796;23;20018;-76
2021/01/08 04:32:53;;;;;;;4.05;1.85;;;2.20;93.80;;;;;;6132822;23;20384;-76
2021/01/08 04:35:19;;;;;;;3.53;1.30;;;2.20;93.90;;;;;;6141672;23;20041;-76
2021/01/08 04:37:45;;;;;;;3.25;1.77;;;2.20;93.80;;;;;;6132141;23;20388;-76
2021/01/08 04:40:12;;;;;;;2.90;1.50;;;2.20;93.80;;;;;;6132143;23;20373;-76
2021/01/08 04:42:38;;;;;;;3.35;1.83;;;2.20;93.80;;;;;;6131969;23;20448;-76
2021/01/08 04:45:04;;;;;;;2.53;1.30;;;2.20;93.80;;;;;;6132083;23;20009;-76
2021/01/08 04:47:32;;;;;;;5.40;1.48;;;2.20;93.80;;;;;;6132098;23;20014;-76
2021/01/08 04:50:03;;;;;;;2.38;1.35;;;2.20;93.70;;;;;;6129926;23;20068;-75
2021/01/08 04:52:32;;;;;;;3.72;1.73;;;2.20;93.80;;;;;;6131759;23;20014;-75
2021/01/08 04:54:59;;;;;;;2.53;1.10;;;2.20;93.80;;;;;;6115891;23;20014;-76
2021/01/08 04:57:34;;;;;;;2.83;1.17;;;2.20;93.70;;;;;;6132905;23;20025;-75
2021/01/08 05:00:00;;;;;;;2.15;1.02;;;2.20;93.70;;;;;;6130382;23;20017;-76
2021/01/08 05:02:26;;;;;;;2.58;1.13;;;2.30;93.80;;;;;;6141234;23;20428;-76
2021/01/08 05:04:53;;;;;;;2.28;0.95;;;2.10;93.70;;;;;;6131523;23;20010;-76
2021/01/08 05:07:19;;;;;;;3.92;1.10;;;2.10;93.70;;;;;;6141540;23;20017;-76
2021/01/08 05:09:45;;;;;;;2.15;1.23;;;2.00;93.70;;;;;;6130997;23;20014;-76
2021/01/08 05:12:11;;;;;;;2.53;1.23;;;2.10;93.80;;;;;;6131357;23;20013;-76
2021/01/08 05:14:37;;;;;;;2.58;1.40;;;2.10;93.80;;;;;;6140833;23;20014;-76
2021/01/08 05:17:03;;;;;;;3.13;1.40;;;2.00;93.80;;;;;;6132210;23;20014;-77
2021/01/08 05:19:28;;;;;;;5.72;1.42;;;2.10;93.80;;;;;;6133200;23;20273;-76
2021/01/08 05:21:55;;;;;;;2.80;1.25;;;2.10;93.80;;;;;;6132415;23;20014;-76
2021/01/08 05:24:24;;;;;;;3.38;1.60;;;2.10;93.80;;;;;;6094465;23;20080;-77
2021/01/08 05:26:53;;;;;;;5.05;2.13;;;2.10;93.80;;;;;;6105355;23;20017;-75
2021/01/08 05:29:19;;;;;;;5.63;3.03;;;2.10;93.80;;;;;;6153640;23;20112;-76
2021/01/08 05:31:47;;;;;;;5.15;2.85;;;2.10;93.80;;;;;;6160776;23;20041;-76
2021/01/08 05:34:13;;;;;;;4.28;2.70;;;2.10;93.80;;;;;;6160973;23;20088;-75
2021/01/08 05:36:40;;;;;;;4.00;2.35;;;2.10;93.80;;;;;;6170782;23;20049;-76
2021/01/08 05:39:05;;;;;;;5.68;2.55;;;2.10;93.80;;;;;;6170922;23;20016;-76
2021/01/08 05:41:32;;;;;;;5.85;2.53;;;2.30;93.80;;;;;;6160511;23;20013;-74
2021/01/08 05:44:00;;;;;;;6.25;2.03;;;2.10;93.70;;;;;;6161085;23;20010;-76
2021/01/08 05:46:30;;;;;;;3.28;1.65;;;2.10;93.80;;;;;;6169656;23;20013;-77
2021/01/08 05:49:05;;;;;;;3.08;1.60;;;2.10;93.80;;;;;;6135518;23;20014;-76
2021/01/08 05:51:35;;;;;;;2.55;1.70;;;2.10;93.80;;;;;;6160212;23;20022;-76
2021/01/08 05:54:02;;;;;;;4.35;1.80;;;2.00;93.70;;;;;;6160668;23;20017;-77
2021/01/08 05:56:35;;;;;;;5.68;1.80;;;2.10;93.70;;;;;;6160657;23;20041;-77
2021/01/08 05:59:05;;;;;;;;;;;2.10;93.80;;;;;;6161026;23;20017;-75
2021/01/08 06:01:32;;;;;;;3.08;1.80;;;2.10;93.70;;;;;;6161935;23;19921;-75
2021/01/08 06:04:00;;;;;;;3.10;1.52;;;2.10;93.80;;;;;;6159152;23;20021;-75
2021/01/08 06:06:43;;;;;;;2.65;1.63;;;2.10;93.80;;;;;;6170239;23;20044;-76
2021/01/08 06:09:15;;;;;;;2.45;1.60;;;2.10;93.80;;;;;;6160351;23;20629;-76
2021/01/08 06:11:44;;;;;;;3.20;1.60;;;2.00;93.70;;;;;;6160057;23;20055;-76
2021/01/08 06:14:11;;;;;;;3.03;1.52;;;2.00;93.70;;;;;;6160413;23;20021;-76
2021/01/08 06:16:45;;;;;;;3.90;1.50;;;2.00;93.70;;;;;;6160501;23;20014;-77
2021/01/08 06:19:14;;;;;;;2.97;1.55;;;2.00;93.70;;;;;;6160831;23;20096;-76
2021/01/08 06:21:42;;;;;;;2.75;1.58;;;2.00;93.70;;;;;;6169936;23;20284;-76
2021/01/08 06:24:22;;;;;;;2.80;1.40;;;1.90;93.70;;;;;;6160255;23;20010;-76
2021/01/08 06:26:49;;;;;;;4.15;1.52;;;1.90;93.80;;;;;;6159411;23;20018;-76
2021/01/08 06:29:23;;;;;;;4.55;1.80;;;1.90;93.70;;;;;;6162249;23;20010;-75
2021/01/08 06:31:50;;;;;;;3.00;1.40;;;1.90;93.70;;;;;;6160029;23;20087;-76
2021/01/08 06:34:25;;;;;;;2.88;1.70;;;1.90;93.70;;;;;;6159599;23;20017;-75
2021/01/08 06:37:06;;;;;;;4.55;1.90;;;1.90;93.80;;;;;;6158956;23;20009;-76
2021/01/08 06:39:39;;;;;;;3.97;1.60;;;1.90;93.80;;;;;;6159285;23;20037;-76
2021/01/08 06:42:06;;;;;;;5.72;2.03;;;1.90;93.80;;;;;;6169614;23;20041;-76
2021/01/08 06:44:34;;;;;;;3.95;1.90;;;1.80;93.70;;;;;;6170604;23;20037;-77
2021/01/08 06:47:21;;;;;;;3.67;1.92;;;1.80;93.70;;;;;;6162617;23;20041;-76
2021/01/08 06:49:51;;;;;;;6.05;1.92;;;1.80;93.70;;;;;;6144692;23;20013;-77
2021/01/08 06:52:18;;;;;;;5.47;2.20;;;1.80;93.80;;;;;;6160292;23;20018;-76
2021/01/08 06:54:44;;;;;;;5.82;2.08;;;1.80;93.80;;;;;;6160872;23;20064;-76
2021/01/08 06:57:21;;;;;;;7.75;3.00;;;1.80;93.80;;;;;;6133954;23;20018;-77
2021/01/08 07:00:04;;;;;;;5.88;2.80;;;1.80;93.80;;;;;;6170672;23;20376;-77
2021/01/08 07:02:31;;;;;;;8.60;2.95;;;1.80;93.80;;;;;;6161377;23;20079;-77
2021/01/08 07:04:58;;;;;;;10.15;3.60;;;1.80;93.80;;;;;;6161493;23;20009;-76
2021/01/08 07:07:26;;;;;;;7.55;3.20;;;1.80;93.80;;;;;;6160486;23;20064;-77
2021/01/08 07:09:56;;;;;;;4.75;2.30;;;1.80;93.80;;;;;;6170209;23;20017;-79
2021/01/08 07:12:23;;;;;;;6.18;2.45;;;1.80;93.80;;;;;;6159775;23;20010;-76
2021/01/08 07:14:50;;;;;;;5.45;2.50;;;1.90;93.90;;;;;;6159872;23;20018;-77
2021/01/08 07:17:16;;;;;;;5.00;2.65;;;1.80;93.80;;;;;;6133461;23;20021;-74
2021/01/08 07:19:45;;;;;;;6.38;2.92;;;1.80;93.80;;;;;;6168998;23;20157;-75
2021/01/08 07:22:20;;;;;;;6.35;3.80;;;1.80;93.80;;;;;;6169069;23;20014;-75
2021/01/08 07:24:49;;;;;;;7.75;3.67;;;1.80;93.80;;;;;;6159089;23;20013;-77
2021/01/08 07:27:24;;;;;;;7.15;3.80;;;1.90;93.90;;;;;;6168777;23;20024;-76
2021/01/08 07:29:56;;;;;;;5.78;2.95;;;1.80;93.80;;;;;;6161749;23;20029;-77
2021/01/08 07:32:40;;;;;;;10.02;5.47;;;1.80;94.00;;;;;;6134611;23;20017;-76
2021/01/08 07:35:23;;;;;;;6.47;4.30;;;1.80;93.80;;;;;;6161498;23;20013;-76
2021/01/08 07:38:13;;;;;;;5.72;3.55;;;1.90;93.80;;;;;;6161323;23;20018;-76
2021/01/08 07:40:59;;;;;;;7.07;3.08;;;1.80;93.80;;;;;;6161219;23;20072;-75
2021/01/08 07:43:35;;;;;;;4.90;2.90;;;1.80;93.80;;;;;;6159821;23;20009;-77
2021/01/08 07:46:03;;;;;;;8.00;3.60;;;1.80;93.80;;;;;;6160480;23;20431;-78
2021/01/08 07:48:40;;;;;;;8.73;3.58;;;1.80;93.80;;;;;;6161048;23;20068;-76
2021/01/08 07:51:08;;;;;;;8.20;4.10;;;1.60;93.70;;;;;;6160583;23;20017;-77
2021/01/08 07:53:47;;;;;;;5.75;3.50;;;1.80;93.80;;;;;;6161536;23;20041;-76
2021/01/08 07:56:26;;;;;;;6.07;3.15;;;1.80;93.80;;;;;;6162685;23;20347;-77
2021/01/08 07:59:03;;;;;;;5.72;3.30;;;1.80;93.80;;;;;;6135972;23;20013;-76
2021/01/08 08:01:51;;;;;;;6.68;3.42;;;2.10;93.90;;;;;;6161003;23;20017;-76
2021/01/08 08:04:22;;;;;;;5.22;2.63;;;1.80;93.80;;;;;;6160818;23;20400;-76
2021/01/08 08:06:51;;;;;;;5.95;3.13;;;1.70;93.80;;;;;;6161456;23;20032;-76
2021/01/08 08:09:17;;;;;;;7.50;3.53;;;1.80;93.80;;;;;;6161292;23;20406;-76
2021/01/08 08:11:43;;;;;;;8.07;3.53;;;1.70;93.80;;;;;;6161252;23;20024;-76
2021/01/08 08:14:17;;;;;;;6.78;3.13;;;1.70;93.80;;;;;;6162847;23;20088;-77
2021/01/08 08:16:46;;;;;;;5.30;2.80;;;1.80;93.90;;;;;;6170485;23;20005;-76
2021/01/08 08:19:14;;;;;;;7.45;3.08;;;1.90;93.90;;;;;;6160557;23;20018;-75
2021/01/08 08:21:51;;;;;;;4.63;2.17;;;1.70;93.90;;;;;;6135295;23;20017;-75
2021/01/08 08:24:18;;;;;;;4.68;2.80;;;1.70;93.90;;;;;;6171143;23;20376;-78
2021/01/08 08:27:00;;;;;;;;;;;1.70;93.80;;;;;;6161914;23;20029;-76
2021/01/08 08:29:37;;;;;;;5.78;2.67;;;1.60;93.70;;;;;;6136606;23;19947;-77
2021/01/08 08:32:06;;;;;;;5.65;2.75;;;1.60;93.80;;;;;;6160458;23;20021;-76
2021/01/08 08:34:39;;;;;;;7.88;2.47;;;1.60;93.80;;;;;;6170459;23;20009;-77
2021/01/08 08:37:09;;;;;;;7.28;2.65;;;1.60;93.80;;;;;;6160956;23;20084;-78
2021/01/08 08:39:36;;;;;;;5.47;3.25;;;1.60;93.80;;;;;;6161525;23;20076;-76
2021/01/08 08:42:02;;;;;;;5.25;3.15;;;1.70;93.80;;;;;;6161082;23;20020;-76
2021/01/08 08:44:28;;;;;;;5.45;2.75;;;1.60;93.80;;;;;;6159844;23;20041;-76
2021/01/08 08:46:55;;;;;;;4.88;2.80;;;1.50;93.80;;;;;;6162560;23;20018;-77
2021/01/08 08:49:51;;;;;;;5.68;2.72;;;1.70;93.80;;;;;;6163434;23;20018;-77
2021/01/08 08:52:42;;;;;;;4.97;3.00;;;1.80;93.80;;;;;;6072968;23;20019;-77
2021/01/08 08:55:23;;;;;;;7.18;3.55;;;2.10;93.90;;;;;;6134834;23;20020;-77
2021/01/08 08:57:49;;;;;;;5.05;2.72;;;1.80;93.80;;;;;;6169620;23;20279;-78
2021/01/08 09:00:19;;;;;;;4.95;3.20;;;1.80;93.80;;;;;;6161680;23;20093;-77
2021/01/08 09:02:45;;;;;;;5.07;3.35;;;1.90;93.80;;;;;;6159827;23;20010;-77
2021/01/08 09:05:11;;;;;;;8.38;3.85;;;1.90;93.80;;;;;;6160586;23;20271;-77
2021/01/08 09:07:43;;;;;;;7.10;4.40;;;2.00;93.70;;;;;;6160537;23;20257;-76
2021/01/08 09:10:50;;;;;;;5.50;3.47;;;2.00;93.70;;;;;;6160509;23;20018;-77
2021/01/08 09:13:25;;;;;;;9.25;3.70;;;1.90;93.70;;;;;;6098591;23;20073;-76
2021/01/08 09:15:53;;;;;;;9.45;5.43;;;2.10;93.80;;;;;;6109277;23;20018;-76
2021/01/08 09:18:41;;;;;;;9.85;6.05;;;2.20;93.80;;;;;;6099414;23;20211;-76
2021/01/08 09:21:16;;;;;;;9.65;5.07;;;2.10;93.70;;;;;;6100439;23;20017;-82
2021/01/08 09:23:48;;;;;;;6.75;4.75;;;2.20;93.80;;;;;;6100232;23;20374;-76
2021/01/08 09:26:44;;;;;;;6.78;4.18;;;2.20;93.70;;;;;;6099122;23;20019;-76
2021/01/08 09:29:32;;;;;;;7.40;3.43;;;2.30;93.80;;;;;;6102144;23;20058;-76
2021/01/08 09:32:00;;;;;;;5.22;3.40;;;2.40;93.80;;;;;;6099863;23;20250;-76
2021/01/08 09:34:27;;;;;;;6.55;3.22;;;2.80;93.80;;;;;;6099191;23;20336;-76
2021/01/08 09:37:10;;;;;;;4.22;2.53;;;2.60;93.70;;;;;;6098667;23;20041;-75
2021/01/08 09:40:22;;;;;;;3.75;2.58;;;2.70;93.60;;;;;;6110317;23;20069;-74
2021/01/08 09:42:45;;;;;;;4.97;2.55;;;2.70;93.60;;;;;;6159328;23;20024;-75
2021/01/08 09:45:23;;;;;;;3.28;2.50;;;2.80;93.50;;;;;;6163686;23;20036;-78
2021/01/08 09:47:50;;;;;;;4.15;2.45;;;2.90;93.40;;;;;;6170402;23;20017;-77
2021/01/08 09:50:45;;;;;;;3.38;2.42;;;2.90;93.40;;;;;;6160367;23;20356;-75
2021/01/08 09:53:14;;;;;;;;;;;3.00;93.20;;;;;;6158687;23;20068;-76
2021/01/08 09:55:40;;;;;;;4.45;2.10;;;2.90;93.00;;;;;;6134030;23;19951;-77
2021/01/08 09:58:15;;;;;;;5.45;2.38;;;2.90;93.20;;;;;;6074485;23;20093;-76
2021/01/08 10:00:48;;;;;;;3.90;2.60;;;3.00;93.20;;;;;;6099104;23;20011;-76
2021/01/08 10:03:18;;;;;;;3.70;2.60;;;3.00;93.20;;;;;;6099926;23;20338;-77
2021/01/08 10:05:44;;;;;;;5.00;2.60;;;3.10;93.20;;;;;;6109023;23;20279;-76
2021/01/08 10:08:21;;;;;;;3.22;2.60;;;3.20;93.20;;;;;;6098441;23;20102;-77
2021/01/08 10:10:48;;;;;;;4.95;2.70;;;3.30;93.30;;;;;;6074288;23;20018;-77
2021/01/08 10:13:17;;;;;;;4.05;2.30;;;3.50;93.30;;;;;;6097780;23;20026;-75
2021/01/08 10:15:48;;;;;;;5.18;2.10;;;3.50;93.20;;;;;;6108071;23;20050;-75
2021/01/08 10:18:24;;;;;;;2.55;1.63;;;3.50;93.10;;;;;;6098993;23;20029;-76
2021/01/08 10:20:52;;;;;;;3.88;2.30;;;3.60;93.10;;;;;;6137675;23;20024;-77
2021/01/08 10:23:23;;;;;;;3.03;1.70;;;3.60;92.90;;;;;;6127916;23;20021;-76
2021/01/08 10:25:54;;;;;;;3.97;1.80;;;3.50;92.70;;;;;;6114650;23;20073;-76
2021/01/08 10:28:49;;;;;;;3.75;2.10;;;3.60;92.60;;;;;;6121674;23;20033;-77
2021/01/08 10:31:25;;;;;;;4.20;1.73;;;3.60;92.80;;;;;;6161073;23;20014;-77
2021/01/08 10:34:25;;;;;;;5.18;2.00;;;3.60;92.70;;;;;;6162489;23;20013;-77
2021/01/08 10:37:00;;;;;;;3.03;1.60;;;3.60;92.60;;;;;;6139930;23;20096;-78
2021/01/08 10:39:31;;;;;;;3.88;1.60;;;3.80;92.60;;;;;;6133259;23;20041;-77
2021/01/08 10:42:07;;;;;;;2.42;1.52;;;3.80;92.50;;;;;;6159919;23;20100;-75
2021/01/08 10:44:54;;;;;;;2.72;1.45;;;3.70;92.40;;;;;;6160246;23;20032;-76
2021/01/08 10:47:23;;;;;;;4.75;1.30;;;3.50;92.30;;;;;;6170093;23;20308;-77
2021/01/08 10:50:38;;;;;;;4.10;1.75;;;3.80;92.30;;;;;;6159683;23;20384;-76
2021/01/08 10:53:04;;;;;;;4.90;1.85;;;4.20;92.00;;;;;;6098261;23;20011;-75
2021/01/08 10:55:56;;;;;;;2.30;1.70;;;3.80;92.20;;;;;;6107835;23;20528;-76
2021/01/08 10:59:01;;;;;;;2.50;1.30;;;4.10;92.30;;;;;;6098076;23;20045;-76
2021/01/08 11:01:27;;;;;;;4.32;1.80;;;3.60;91.90;;;;;;6045910;23;20019;-75
2021/01/08 11:03:52;;;;;;;2.97;2.03;;;4.10;92.10;;;;;;6043749;23;20071;-76
2021/01/08 11:06:21;;;;;;;4.80;1.50;;;4.20;92.30;;;;;;6050599;23;20019;-75
2021/01/08 11:08:47;;;;;;;4.13;2.22;;;4.10;92.10;;;;;;6040688;23;20019;-75
2021/01/08 11:11:16;;;;;;;3.28;1.80;;;4.10;91.90;;;;;;5993850;23;20402;-76
2021/01/08 11:14:02;;;;;;;3.20;1.80;;;4.20;92.00;;;;;;6097318;23;20289;-77
2021/01/08 11:16:34;;;;;;;3.63;1.48;;;4.30;91.80;;;;;;6100797;23;20077;-77
2021/01/08 11:19:01;;;;;;;3.75;2.05;;;4.40;91.80;;;;;;6100797;23;20038;-76
2021/01/08 11:21:27;;;;;;;6.80;2.25;;;4.40;91.70;;;;;;6075224;23;20010;-76
2021/01/08 11:23:52;;;;;;;3.83;1.83;;;4.40;91.50;;;;;;6110083;23;20085;-77
2021/01/08 11:26:27;;;;;;;3.08;1.73;;;4.30;91.30;;;;;;6107468;23;20014;-76
2021/01/08 11:28:59;;;;;;;2.88;2.05;;;4.50;91.50;;;;;;6100289;23;20026;-76
2021/01/08 11:31:37;;;;;;;2.67;1.58;;;4.60;90.90;;;;;;6101114;23;20027;-76
2021/01/08 11:34:04;;;;;;;2.70;1.85;;;4.70;91.20;;;;;;6101228;23;20015;-76
2021/01/08 11:36:30;;;;;;;4.22;1.70;;;4.80;91.10;;;;;;6100834;23;20028;-76
2021/01/08 11:38:56;;;;;;;2.63;1.80;;;4.90;90.80;;;;;;6084785;23;20010;-75
2021/01/08 11:41:22;;;;;;;3.20;1.55;;;5.10;91.00;;;;;;6099717;23;20018;-76
2021/01/08 11:43:49;;;;;;;2.80;1.35;;;5.10;90.80;;;;;;6109798;23;20014;-78
2021/01/08 11:46:17;;;;;;;3.13;1.40;;;5.50;90.70;;;;;;6051276;23;20014;-76
2021/01/08 11:48:43;;;;;;;3.42;1.38;;;5.20;90.70;;;;;;6051479;23;20018;-76
2021/01/08 11:51:33;;;;;;;3.60;1.63;;;5.30;90.80;;;;;;6100792;23;20021;-76
2021/01/08 11:53:58;;;;;;;4.82;1.60;;;5.00;89.80;;;;;;6109966;23;20034;-77
2021/01/08 11:56:28;;;;;;;2.80;1.45;;;4.90;90.60;;;;;;6110015;23;20381;-76
2021/01/08 11:58:54;;;;;;;2.05;1.48;;;4.80;90.70;;;;;;6075581;23;20041;-76
2021/01/08 12:01:24;;;;;;;4.28;1.70;;;4.80;90.90;;;;;;6091022;23;20014;-77
2021/01/08 12:03:50;;;;;;;2.10;1.45;;;4.70;89.90;;;;;;6100458;23;20427;-77
2021/01/08 12:06:17;;;;;;;2.38;1.40;;;4.70;90.90;;;;;;6075481;23;20037;-77
2021/01/08 12:08:43;;;;;;;2.50;1.20;;;4.70;90.90;;;;;;6100273;23;20033;-77
2021/01/08 12:11:13;;;;;;;2.00;1.35;;;4.80;91.00;;;;;;6098853;23;20370;-78
2021/01/08 12:13:41;;;;;;;2.25;1.40;;;4.70;90.60;;;;;;6070193;23;20021;-78
2021/01/08 12:16:07;;;;;;;1.70;1.25;;;4.60;90.90;;;;;;6100907;23;20015;-77
2021/01/08 12:18:33;;;;;;;3.45;1.25;;;4.80;91.10;;;;;;6078622;23;20093;-77
2021/01/08 12:20:59;;;;;;;2.95;1.35;;;4.80;90.80;;;;;;6077329;23;20041;-77
2021/01/08 12:23:32;;;;;;;2.13;1.20;;;4.80;90.90;;;;;;6102732;23;20033;-76
2021/01/08 12:25:58;;;;;;;2.75;1.40;;;5.00;90.90;;;;;;6102183;23;20050;-76
2021/01/08 12:28:24;;;;;;;4.15;1.90;;;4.90;90.90;;;;;;6102374;23;20014;-76
2021/01/08 12:30:50;;;;;;;4.88;1.60;;;5.00;90.80;;;;;;6103964;23;20018;-77
2021/01/08 12:33:21;;;;;;;3.63;1.63;;;5.50;91.20;;;;;;6102394;23;20251;-76
2021/01/08 12:35:47;;;;;;;3.30;1.13;;;6.50;90.50;;;;;;6111590;23;20038;-77
2021/01/08 12:42:17;;;;;;;2.20;1.70;;;6.70;86.90;;;;;;6105125;23;20328;-78
2021/01/08 12:44:43;;;;;;;2.13;1.17;;;7.30;86.40;;;;;;5998152;23;20074;-78
2021/01/08 12:47:18;;;;;;;1.85;1.40;;;7.50;85.00;;;;;;6042092;23;20395;-75
2021/01/08 12:49:50;;;;;;;3.38;1.33;;;8.20;82.50;;;;;;6042314;23;20011;-77
2021/01/08 12:52:16;;;;;;;4.30;1.73;;;8.10;78.90;;;;;;6042197;23;20043;-76
2021/01/08 12:54:50;;;;;;;3.63;1.67;;;7.50;83.00;;;;;;6042145;23;20043;-76
2021/01/08 12:57:16;;;;;;;4.85;2.22;;;7.00;83.00;;;;;;6042392;23;20098;-77
2021/01/08 12:59:42;;;;;;;4.95;2.13;;;6.60;84.20;;;;;;6042022;23;20029;-76
2021/01/08 13:02:46;;;;;;;4.20;2.45;;;6.10;86.00;;;;;;6042083;23;20018;-77
2021/01/08 13:05:15;;;;;;;3.22;2.35;;;6.20;86.00;;;;;;5957360;24;20012;-77
2021/01/08 13:07:43;;;;;;;3.63;1.98;;;6.50;86.20;;;;;;5934289;24;20019;-76
2021/01/08 13:10:10;;;;;;;4.90;2.13;;;6.70;85.60;;;;;;5960028;24;20024;-76
2021/01/08 13:12:36;;;;;;;4.80;2.00;;;6.70;85.80;;;;;;5964404;24;20455;-77
2021/01/08 13:15:04;;;;;;;4.32;2.38;;;6.70;86.50;;;;;;5936850;24;20050;-78
2021/01/08 13:17:29;;;;;;;3.33;2.33;;;6.50;83.70;;;;;;5947889;24;20017;-76